Time,TemperatureF,DewpointF,PressureIn,WindDirection,WindDirectionDegrees,WindSpeedMPH,WindSpeedGustMPH,Humidity,HourlyPrecipIn,Conditions,Clouds,dailyrainin,SoftwareType,DateUTC
2013-02-03 00:03:00,15.0,12.0,-100.00,ENE,70,1.0,4.0,86,0.00,,,-99.99,,2013-02-03 05:03:00,
2013-02-03 00:12:00,15.0,12.0,-100.00,ENE,70,0.0,1.0,86,0.00,,,-99.99,,2013-02-03 05:12:00,
2013-02-03 00:22:00,15.0,11.0,-100.00,West,265,0.0,2.0,87,0.00,,,-99.99,,2013-02-03 05:22:00,
2013-02-03 00:32:00,14.0,11.0,-100.00,WSW,255,0.0,2.0,87,0.00,,,-99.99,,2013-02-03 05:32:00,
2013-02-03 00:42:00,14.0,11.0,-100.00,West,260,0.0,1.0,87,0.00,,,-99.99,,2013-02-03 05:42:00,
2013-02-03 00:52:00,14.0,11.0,-100.00,WSW,255,1.0,1.0,88,0.00,,,-99.99,,2013-02-03 05:52:00,
2013-02-03 01:02:00,14.0,11.0,-100.00,West,260,1.0,2.0,88,0.00,,,-99.99,,2013-02-03 06:02:00,
2013-02-03 01:11:00,14.0,11.0,-100.00,West,260,0.0,2.0,88,0.00,,,-99.99,,2013-02-03 06:11:00,
2013-02-03 01:21:00,14.0,11.0,-100.00,West,265,1.0,2.0,89,0.00,,,-99.99,,2013-02-03 06:21:00,
2013-02-03 01:32:00,13.0,11.0,-100.00,ENE,70,0.0,2.0,89,0.00,,,-99.99,,2013-02-03 06:32:00,
2013-02-03 01:42:00,13.0,11.0,-100.00,West,260,2.0,3.0,89,0.00,,,-99.99,,2013-02-03 06:42:00,
2013-02-03 01:52:00,13.0,11.0,-100.00,West,260,1.0,4.0,88,0.00,,,-99.99,,2013-02-03 06:52:00,
2013-02-03 02:02:00,13.0,11.0,-100.00,East,85,1.0,4.0,88,0.00,,,-99.99,,2013-02-03 07:02:00,
2013-02-03 02:11:00,13.0,10.0,-100.00,East,90,0.0,2.0,88,0.00,,,-99.99,,2013-02-03 07:11:00,
2013-02-03 02:21:00,13.0,10.0,-100.00,ENE,70,0.0,1.0,88,0.00,,,-99.99,,2013-02-03 07:21:00,
2013-02-03 02:32:00,13.0,10.0,-100.00,West,265,0.0,1.0,88,0.00,,,-99.99,,2013-02-03 07:32:00,
2013-02-03 02:42:00,13.0,10.0,-100.00,East,90,0.0,0.0,88,0.00,,,-99.99,,2013-02-03 07:42:00,
2013-02-03 02:52:00,13.0,10.0,-100.00,East,85,0.0,0.0,88,0.00,,,-99.99,,2013-02-03 07:52:00,
2013-02-03 03:02:00,13.0,10.0,-100.00,East,80,0.0,1.0,89,0.00,,,-99.99,,2013-02-03 08:02:00,
2013-02-03 03:11:00,13.0,10.0,-100.00,East,85,0.0,1.0,89,0.00,,,-99.99,,2013-02-03 08:11:00,
2013-02-03 03:22:00,13.0,10.0,-100.00,East,80,0.0,1.0,88,0.00,,,-99.99,,2013-02-03 08:22:00,
2013-02-03 03:32:00,12.0,10.0,-100.00,East,90,0.0,0.0,88,0.00,,,-99.99,,2013-02-03 08:32:00,
2013-02-03 03:41:00,12.0,9.0,-100.00,ENE,70,0.0,1.0,88,0.00,,,-99.99,,2013-02-03 08:41:00,
2013-02-03 03:52:00,11.0,9.0,-100.00,East,90,0.0,4.0,89,0.00,,,-99.99,,2013-02-03 08:52:00,
2013-02-03 04:03:00,11.0,8.0,-100.00,ENE,65,0.0,0.0,89,0.00,,,-99.99,,2013-02-03 09:03:00,
2013-02-03 04:11:00,10.0,8.0,-100.00,WSW,240,0.0,1.0,90,0.00,,,-99.99,,2013-02-03 09:11:00,
2013-02-03 04:21:00,9.0,7.0,-100.00,WSW,240,0.0,1.0,91,0.00,,,-99.99,,2013-02-03 09:21:00,
2013-02-03 04:32:00,8.0,6.0,-100.00,WSW,240,0.0,0.0,91,0.00,,,-99.99,,2013-02-03 09:32:00,
2013-02-03 04:42:00,9.0,8.0,-100.00,ESE,115,1.0,6.0,94,0.00,,,-99.99,,2013-02-03 09:42:00,
2013-02-03 04:51:00,9.0,8.0,-100.00,South,180,0.0,6.0,94,0.00,,,-99.99,,2013-02-03 09:51:00,
2013-02-03 05:01:00,8.0,7.0,-100.00,South,180,0.0,0.0,94,0.00,,,-99.99,,2013-02-03 10:01:00,
2013-02-03 05:11:00,8.0,7.0,-100.00,SW,220,0.0,1.0,94,0.00,,,-99.99,,2013-02-03 10:11:00,
2013-02-03 05:21:00,8.0,7.0,-100.00,WSW,255,0.0,0.0,95,0.00,,,-99.99,,2013-02-03 10:21:00,
2013-02-03 05:32:00,9.0,8.0,-100.00,WSW,250,0.0,0.0,95,0.00,,,-99.99,,2013-02-03 10:32:00,
2013-02-03 05:42:00,9.0,8.0,-100.00,West,265,0.0,1.0,95,0.00,,,-99.99,,2013-02-03 10:42:00,
2013-02-03 05:52:00,9.0,9.0,-100.00,East,80,0.0,0.0,96,0.00,,,-99.99,,2013-02-03 10:52:00,
2013-02-03 06:02:00,10.0,9.0,-100.00,East,80,0.0,0.0,96,0.00,,,-99.99,,2013-02-03 11:02:00,
2013-02-03 06:11:00,10.0,9.0,-100.00,SW,235,1.0,1.0,96,0.00,,,-99.99,,2013-02-03 11:11:00,
2013-02-03 06:22:00,10.0,9.0,-100.00,SW,225,1.0,1.0,96,0.00,,,-99.99,,2013-02-03 11:22:00,
2013-02-03 06:32:00,10.0,10.0,-100.00,SW,235,1.0,2.0,96,0.00,,,-99.99,,2013-02-03 11:32:00,
2013-02-03 06:42:00,11.0,10.0,-100.00,SW,235,1.0,1.0,96,0.00,,,-99.99,,2013-02-03 11:42:00,
2013-02-03 06:52:00,11.0,10.0,-100.00,WSW,245,0.0,1.0,96,0.00,,,-99.99,,2013-02-03 11:52:00,
2013-02-03 07:02:00,11.0,10.0,-100.00,WSW,255,0.0,0.0,96,5.08,,,-99.99,,2013-02-03 12:02:00,
2013-02-03 07:12:00,11.0,10.0,-100.00,ESE,110,0.0,0.0,96,1.10,,,-99.99,,2013-02-03 12:12:00,
2013-02-03 07:22:00,11.0,10.0,-100.00,East,85,0.0,0.0,96,0.55,,,-99.99,,2013-02-03 12:22:00,
2013-02-03 07:32:00,11.0,10.0,-100.00,ENE,70,0.0,0.0,96,0.00,,,-99.99,,2013-02-03 12:32:00,
2013-02-03 07:42:00,11.0,11.0,-100.00,ENE,70,13.0,13.0,95,0.00,,,-99.99,,2013-02-03 12:42:00,
2013-02-03 07:53:00,11.0,10.0,-100.00,ENE,70,13.0,13.0,95,0.00,,,-99.99,,2013-02-03 12:53:00,
2013-02-03 08:03:00,11.0,10.0,-100.00,WSW,250,13.0,13.0,95,0.00,,,-99.99,,2013-02-03 13:03:00,
2013-02-03 08:11:00,11.0,10.0,-100.00,SE,130,13.0,13.0,95,0.00,,,-99.99,,2013-02-03 13:11:00,
2013-02-03 08:21:00,11.0,10.0,-100.00,SE,130,13.0,13.0,95,0.00,,,-99.99,,2013-02-03 13:21:00,
2013-02-03 08:32:00,11.0,10.0,-100.00,SE,145,13.0,13.0,95,0.00,,,-99.99,,2013-02-03 13:32:00,
2013-02-03 08:42:00,11.0,10.0,-100.00,SSW,200,13.0,13.0,95,0.00,,,-99.99,,2013-02-03 13:42:00,
2013-02-03 08:52:00,11.0,10.0,-100.00,SSW,210,13.0,13.0,95,0.00,,,-99.99,,2013-02-03 13:52:00,
2013-02-03 09:02:00,12.0,11.0,-100.00,SSW,205,13.0,13.0,95,0.00,,,-99.99,,2013-02-03 14:02:00,
2013-02-03 09:11:00,12.0,11.0,-100.00,South,190,13.0,13.0,95,0.00,,,-99.99,,2013-02-03 14:11:00,
2013-02-03 09:21:00,12.0,11.0,-100.00,South,190,13.0,13.0,95,0.55,,,-99.99,,2013-02-03 14:21:00,
2013-02-03 09:32:00,13.0,11.0,-100.00,South,180,13.0,13.0,94,2.24,,,-99.99,,2013-02-03 14:32:00,
2013-02-03 09:42:00,13.0,11.0,-100.00,South,190,13.0,13.0,94,2.83,,,-99.99,,2013-02-03 14:42:00,
2013-02-03 09:52:00,13.0,12.0,-100.00,SSW,195,13.0,13.0,94,2.24,,,-99.99,,2013-02-03 14:52:00,
2013-02-03 10:03:00,14.0,12.0,-100.00,South,180,13.0,13.0,94,3.39,,,-99.99,,2013-02-03 15:03:00,
2013-02-03 10:11:00,14.0,13.0,-100.00,South,180,13.0,13.0,94,5.67,,,-99.99,,2013-02-03 15:11:00,
2013-02-03 10:22:00,14.0,13.0,-100.00,South,185,13.0,13.0,94,2.83,,,-99.99,,2013-02-03 15:22:00,
2013-02-03 10:33:00,15.0,14.0,-100.00,South,190,4.0,13.0,94,2.24,,,-99.99,,2013-02-03 15:33:00,
2013-02-03 10:42:00,16.0,14.0,-100.00,SSW,210,4.0,6.0,93,1.69,,,-99.99,,2013-02-03 15:42:00,
2013-02-03 10:51:00,15.0,14.0,-100.00,SSW,205,6.0,10.0,93,2.24,,,-99.99,,2013-02-03 15:51:00,
2013-02-03 11:03:00,16.0,14.0,-100.00,SW,215,6.0,11.0,92,1.10,,,-99.99,,2013-02-03 16:03:00,
2013-02-03 11:11:00,17.0,14.0,-100.00,SSW,210,8.0,12.0,91,1.10,,,-99.99,,2013-02-03 16:11:00,
2013-02-03 11:22:00,17.0,15.0,-100.00,SW,215,7.0,12.0,90,0.55,,,-99.99,,2013-02-03 16:22:00,
2013-02-03 11:33:00,17.0,14.0,-100.00,SSW,205,9.0,12.0,87,0.00,,,-99.99,,2013-02-03 16:33:00,
2013-02-03 11:42:00,17.0,13.0,-100.00,SW,215,11.0,16.0,84,0.00,,,-99.99,,2013-02-03 16:42:00,
2013-02-03 11:52:00,17.0,13.0,-100.00,SW,220,9.0,14.0,82,0.00,,,-99.99,,2013-02-03 16:52:00,
2013-02-03 12:02:00,17.0,13.0,-100.00,SW,215,10.0,16.0,82,0.00,,,-99.99,,2013-02-03 17:02:00,
2013-02-03 12:11:00,17.0,13.0,-100.00,SW,215,10.0,15.0,81,0.00,,,-99.99,,2013-02-03 17:11:00,
2013-02-03 12:22:00,18.0,13.0,-100.00,SW,215,11.0,15.0,81,0.00,,,-99.99,,2013-02-03 17:22:00,
2013-02-03 12:32:00,18.0,13.0,-100.00,SW,215,9.0,15.0,80,0.00,,,-99.99,,2013-02-03 17:32:00,
2013-02-03 12:42:00,18.0,13.0,-100.00,SSW,210,10.0,12.0,80,0.00,,,-99.99,,2013-02-03 17:42:00,
2013-02-03 12:52:00,17.0,12.0,-100.00,SW,215,13.0,17.0,79,0.00,,,-99.99,,2013-02-03 17:52:00,
2013-02-03 13:03:00,18.0,13.0,-100.00,SW,220,12.0,19.0,80,0.00,,,-99.99,,2013-02-03 18:03:00,
2013-02-03 13:12:00,18.0,13.0,-100.00,SSW,210,11.0,16.0,81,1.69,,,-99.99,,2013-02-03 18:12:00,
2013-02-03 13:23:00,18.0,13.0,-100.00,SSW,205,11.0,15.0,82,2.83,,,-99.99,,2013-02-03 18:23:00,
2013-02-03 13:33:00,18.0,13.0,-100.00,SSW,205,13.0,16.0,82,0.00,,,-99.99,,2013-02-03 18:33:00,
2013-02-03 13:42:00,18.0,14.0,-100.00,SW,215,13.0,18.0,82,0.00,,,-99.99,,2013-02-03 18:42:00,
2013-02-03 13:51:00,19.0,15.0,-100.00,SSW,210,13.0,17.0,84,1.10,,,-99.99,,2013-02-03 18:51:00,
2013-02-03 14:02:00,18.0,14.0,-100.00,SSW,210,14.0,19.0,83,0.00,,,-99.99,,2013-02-03 19:02:00,
2013-02-03 14:11:00,19.0,15.0,-100.00,SSW,210,13.0,16.0,82,0.00,,,-99.99,,2013-02-03 19:11:00,
2013-02-03 14:22:00,19.0,14.0,-100.00,SSW,210,13.0,17.0,81,0.00,,,-99.99,,2013-02-03 19:22:00,
2013-02-03 14:32:00,19.0,14.0,-100.00,SW,215,13.0,16.0,81,0.00,,,-99.99,,2013-02-03 19:32:00,
2013-02-03 14:42:00,19.0,14.0,-100.00,SSW,200,13.0,15.0,80,0.00,,,-99.99,,2013-02-03 19:42:00,
2013-02-03 14:51:00,19.0,14.0,-100.00,SSW,200,13.0,16.0,79,0.00,,,-99.99,,2013-02-03 19:51:00,
2013-02-03 15:02:00,19.0,13.0,-100.00,SSW,195,14.0,17.0,79,0.00,,,-99.99,,2013-02-03 20:02:00,
2013-02-03 15:12:00,19.0,14.0,-100.00,SSW,200,13.0,14.0,79,0.00,,,-99.99,,2013-02-03 20:12:00,
2013-02-03 15:21:00,20.0,14.0,-100.00,SSW,205,13.0,16.0,78,0.00,,,-99.99,,2013-02-03 20:21:00,
2013-02-03 15:33:00,20.0,14.0,-100.00,SW,215,15.0,21.0,78,0.00,,,-99.99,,2013-02-03 20:33:00,
2013-02-03 15:42:00,20.0,14.0,-100.00,SSW,205,17.0,22.0,78,0.00,,,-99.99,,2013-02-03 20:42:00,
2013-02-03 15:52:00,20.0,14.0,-100.00,SSW,205,17.0,20.0,78,0.00,,,-99.99,,2013-02-03 20:52:00,
2013-02-03 16:03:00,20.0,15.0,-100.00,SSW,210,12.0,21.0,78,0.00,,,-99.99,,2013-02-03 21:03:00,
2013-02-03 16:11:00,20.0,15.0,-100.00,SSW,210,15.0,21.0,78,0.00,,,-99.99,,2013-02-03 21:11:00,
2013-02-03 16:21:00,20.0,15.0,-100.00,SW,215,12.0,20.0,79,0.00,,,-99.99,,2013-02-03 21:21:00,
2013-02-03 16:33:00,20.0,15.0,-100.00,SW,215,15.0,22.0,79,1.10,,,-99.99,,2013-02-03 21:33:00,
2013-02-03 16:42:00,20.0,15.0,-100.00,SW,215,15.0,20.0,80,1.69,,,-99.99,,2013-02-03 21:42:00,
2013-02-03 16:51:00,20.0,15.0,-100.00,SSW,205,16.0,22.0,81,0.00,,,-99.99,,2013-02-03 21:51:00,
2013-02-03 17:02:00,20.0,15.0,-100.00,SSW,210,13.0,20.0,81,0.00,,,-99.99,,2013-02-03 22:02:00,
2013-02-03 17:11:00,20.0,15.0,-100.00,SSW,205,9.0,20.0,80,0.00,,,-99.99,,2013-02-03 22:11:00,
2013-02-03 17:21:00,20.0,16.0,-100.00,SW,215,12.0,18.0,82,2.24,,,-99.99,,2013-02-03 22:21:00,
2013-02-03 17:32:00,19.0,16.0,-100.00,SW,215,13.0,21.0,88,14.72,,,-99.99,,2013-02-03 22:32:00,
2013-02-03 17:42:00,19.0,17.0,-100.00,SSW,210,12.0,19.0,91,-99.99,,,-99.99,,2013-02-03 22:42:00,
2013-02-03 17:51:00,19.0,17.0,-100.00,SSW,205,12.0,18.0,94,4.53,,,-99.99,,2013-02-03 22:51:00,
2013-02-03 18:01:00,19.0,17.0,-100.00,SSW,205,11.0,19.0,93,0.00,,,-99.99,,2013-02-03 23:01:00,
2013-02-03 18:12:00,19.0,17.0,-100.00,SSW,210,11.0,17.0,91,0.00,,,-99.99,,2013-02-03 23:12:00,
2013-02-03 18:22:00,19.0,17.0,-100.00,SSW,205,11.0,16.0,91,2.83,,,-99.99,,2013-02-03 23:22:00,
2013-02-03 18:32:00,19.0,17.0,-100.00,SSW,205,13.0,17.0,92,1.69,,,-99.99,,2013-02-03 23:32:00,
2013-02-03 18:42:00,19.0,17.0,-100.00,SSW,205,9.0,17.0,92,0.55,,,-99.99,,2013-02-03 23:42:00,
2013-02-03 18:52:00,19.0,17.0,-100.00,SSW,210,9.0,16.0,90,0.55,,,-99.99,,2013-02-03 23:52:00,
2013-02-03 19:02:00,19.0,16.0,-100.00,SSW,210,12.0,16.0,89,0.00,,,-99.99,,2013-02-04 00:02:00,
2013-02-03 19:11:00,19.0,16.0,-100.00,SSW,210,10.0,16.0,89,0.00,,,-99.99,,2013-02-04 00:11:00,
2013-02-03 19:22:00,19.0,16.0,-100.00,SSW,210,8.0,12.0,88,0.00,,,-99.99,,2013-02-04 00:22:00,
2013-02-03 19:32:00,19.0,15.0,-100.00,SW,220,10.0,14.0,87,0.00,,,-99.99,,2013-02-04 00:32:00,
2013-02-03 19:42:00,19.0,15.0,-100.00,SW,215,7.0,15.0,85,0.00,,,-99.99,,2013-02-04 00:42:00,
2013-02-03 19:51:00,19.0,16.0,-100.00,SSW,210,11.0,15.0,86,0.00,,,-99.99,,2013-02-04 00:51:00,
2013-02-03 20:01:00,19.0,16.0,-100.00,SSW,210,9.0,12.0,88,0.00,,,-99.99,,2013-02-04 01:01:00,
2013-02-03 20:11:00,19.0,17.0,-100.00,SSW,195,6.0,10.0,91,0.55,,,-99.99,,2013-02-04 01:11:00,
2013-02-03 20:21:00,19.0,17.0,-100.00,SSW,205,9.0,12.0,93,0.55,,,-99.99,,2013-02-04 01:21:00,
2013-02-03 20:32:00,19.0,17.0,-100.00,SSW,205,9.0,12.0,93,0.55,,,-99.99,,2013-02-04 01:32:00,
2013-02-03 20:42:00,19.0,17.0,-100.00,SSW,205,9.0,12.0,91,0.55,,,-99.99,,2013-02-04 01:42:00,
2013-02-03 20:52:00,18.0,16.0,-100.00,SSW,205,9.0,12.0,91,1.10,,,-99.99,,2013-02-04 01:52:00,
2013-02-03 21:02:00,18.0,17.0,-100.00,SSW,200,9.0,12.0,92,0.00,,,-99.99,,2013-02-04 02:02:00,
2013-02-03 21:11:00,18.0,17.0,-100.00,SSW,200,9.0,11.0,92,1.69,,,-99.99,,2013-02-04 02:11:00,
2013-02-03 21:21:00,19.0,17.0,-100.00,SSW,200,10.0,12.0,93,1.69,,,-99.99,,2013-02-04 02:21:00,
2013-02-03 21:32:00,18.0,17.0,-100.00,SSW,195,6.0,10.0,93,1.10,,,-99.99,,2013-02-04 02:32:00,
2013-02-03 21:41:00,18.0,17.0,-100.00,South,190,5.0,7.0,94,0.00,,,-99.99,,2013-02-04 02:41:00,
2013-02-03 21:52:00,18.0,17.0,-100.00,SSW,195,4.0,10.0,95,0.00,,,-99.99,,2013-02-04 02:52:00,
2013-02-03 22:02:00,18.0,17.0,-100.00,South,190,6.0,7.0,94,0.00,,,-99.99,,2013-02-04 03:02:00,
2013-02-03 22:11:00,19.0,17.0,-100.00,SSW,200,7.0,9.0,91,0.00,,,-99.99,,2013-02-04 03:11:00,
2013-02-03 22:21:00,19.0,16.0,-100.00,South,185,2.0,8.0,88,0.00,,,-99.99,,2013-02-04 03:21:00,
2013-02-03 22:32:00,19.0,16.0,-100.00,South,190,10.0,12.0,87,0.00,,,-99.99,,2013-02-04 03:32:00,
2013-02-03 22:42:00,19.0,15.0,-100.00,SSW,195,10.0,12.0,85,0.00,,,-99.99,,2013-02-04 03:42:00,
2013-02-03 22:51:00,19.0,15.0,-100.00,SSW,195,10.0,14.0,84,0.00,,,-99.99,,2013-02-04 03:51:00,
2013-02-03 23:01:00,18.0,15.0,-100.00,South,190,10.0,13.0,85,0.00,,,-99.99,,2013-02-04 04:01:00,
2013-02-03 23:11:00,18.0,15.0,-100.00,SSW,195,8.0,12.0,85,0.00,,,-99.99,,2013-02-04 04:11:00,
2013-02-03 23:21:00,19.0,15.0,-100.00,SSW,195,10.0,12.0,85,0.00,,,-99.99,,2013-02-04 04:21:00,
2013-02-03 23:32:00,18.0,15.0,-100.00,SSW,195,8.0,12.0,86,0.00,,,-99.99,,2013-02-04 04:32:00,
2013-02-03 23:42:00,18.0,15.0,-100.00,SSW,195,10.0,12.0,85,0.00,,,-99.99,,2013-02-04 04:42:00,
2013-02-03 23:52:00,18.0,15.0,-100.00,SSW,195,11.0,14.0,84,0.00,,,-99.99,,2013-02-04 04:52:00,